createdAt,value
2022-11-16T00:01:29.786Z,12.63
2022-11-16T00:03:59.506Z,12.66
2022-11-16T00:06:27.246Z,12.43
2022-11-16T00:09:18.573Z,12.65
2022-11-16T00:11:45.268Z,12.56
2022-11-16T00:14:12.045Z,12.24
2022-11-16T00:16:40.260Z,12.37
2022-11-16T00:19:08.437Z,12.24
2022-11-16T00:21:35.338Z,12.51
2022-11-16T00:24:03.212Z,12.37
2022-11-16T00:26:33.234Z,12.35
2022-11-16T00:28:59.928Z,12.25
2022-11-16T00:31:26.601Z,12.31
2022-11-16T00:33:53.230Z,12.25
2022-11-16T00:36:19.988Z,12.30
2022-11-16T00:38:47.845Z,12.24
2022-11-16T00:41:14.515Z,12.28
2022-11-16T00:43:41.229Z,12.24
2022-11-16T00:46:09.058Z,12.30
2022-11-16T00:48:36.070Z,12.19
2022-11-16T00:51:03.275Z,11.99
2022-11-16T00:53:30.122Z,12.05
2022-11-16T00:55:57.465Z,12.23
2022-11-16T00:58:25.676Z,12.25
2022-11-16T01:01:07.655Z,11.98
2022-11-16T01:03:35.976Z,11.87
2022-11-16T01:06:13.501Z,11.88
2022-11-16T01:08:42.131Z,12.00
2022-11-16T01:11:29.113Z,12.13
2022-11-16T01:13:59.016Z,12.09
2022-11-16T01:16:25.672Z,12.25
2022-11-16T01:18:54.588Z,12.34
2022-11-16T01:21:23.259Z,12.39
2022-11-16T01:23:51.337Z,12.16
2022-11-16T01:26:18.637Z,12.08
2022-11-16T01:28:47.024Z,12.20
2022-11-16T01:31:14.004Z,12.13
2022-11-16T01:33:41.771Z,12.14
2022-11-16T01:36:17.978Z,11.97
2022-11-16T01:38:47.212Z,11.92
2022-11-16T01:41:19.144Z,11.98
2022-11-16T01:44:01.153Z,12.23
2022-11-16T01:46:37.461Z,12.06
2022-11-16T01:49:10.566Z,12.14
2022-11-16T01:51:38.466Z,12.10
2022-11-16T01:54:08.970Z,12.12
2022-11-16T01:56:42.874Z,11.94
2022-11-16T01:59:14.598Z,12.05
2022-11-16T02:01:41.367Z,11.96
2022-11-16T02:04:11.285Z,11.93
2022-11-16T02:07:04.384Z,11.89
2022-11-16T02:10:06.231Z,11.91
2022-11-16T02:13:03.920Z,11.98
2022-11-16T02:15:51.727Z,12.01
2022-11-16T02:18:49.526Z,11.77
2022-11-16T02:21:21.269Z,11.60
2022-11-16T02:24:15.182Z,11.98
2022-11-16T02:27:21.676Z,11.92
2022-11-16T02:29:53.422Z,11.89
2022-11-16T02:32:44.206Z,12.19
2022-11-16T02:35:14.433Z,11.97
2022-11-16T02:37:50.391Z,11.96
2022-11-16T02:40:21.209Z,11.63
2022-11-16T02:42:54.745Z,11.93
2022-11-16T02:45:26.105Z,12.16
2022-11-16T02:47:55.949Z,12.21
2022-11-16T02:50:25.052Z,11.74
2022-11-16T02:52:53.571Z,12.09
2022-11-16T02:55:20.297Z,11.48
2022-11-16T02:57:53.045Z,11.54
2022-11-16T03:00:23.247Z,11.67
2022-11-16T03:03:06.798Z,11.70
2022-11-16T03:05:41.684Z,11.80
2022-11-16T03:08:44.188Z,11.70
2022-11-16T03:11:30.464Z,11.65
2022-11-16T03:14:05.837Z,11.78
2022-11-16T03:16:40.604Z,12.10
2022-11-16T03:19:12.144Z,11.89
2022-11-16T03:21:57.766Z,11.94
2022-11-16T03:24:25.477Z,11.63
2022-11-16T03:26:58.253Z,11.82
2022-11-16T03:29:30.833Z,11.72
2022-11-16T03:32:16.727Z,11.85
2022-11-16T03:34:54.103Z,11.82
2022-11-16T03:37:22.371Z,11.65
2022-11-16T03:39:50.935Z,11.55
2022-11-16T03:42:21.003Z,11.57
2022-11-16T03:44:49.570Z,11.71
2022-11-16T03:47:16.291Z,11.77
2022-11-16T03:49:47.614Z,11.98
2022-11-16T03:52:17.951Z,12.12
2022-11-16T03:54:45.104Z,11.81
2022-11-16T03:57:18.043Z,11.55
2022-11-16T03:59:50.409Z,11.55
2022-11-16T04:02:17.226Z,11.56
2022-11-16T04:05:02.794Z,11.60
2022-11-16T04:07:48.514Z,11.69
2022-11-16T04:10:33.845Z,11.52
2022-11-16T04:13:21.164Z,11.55
2022-11-16T04:16:06.712Z,11.85
2022-11-16T04:18:52.446Z,11.71
2022-11-16T04:21:44.457Z,11.75
2022-11-16T04:24:18.661Z,12.06
2022-11-16T04:27:07.547Z,11.56
2022-11-16T04:29:35.749Z,11.58
2022-11-16T04:32:21.012Z,11.58
2022-11-16T04:35:06.659Z,12.15
2022-11-16T04:37:48.951Z,11.92
2022-11-16T04:40:29.301Z,11.81
2022-11-16T04:42:59.362Z,11.53
2022-11-16T04:45:48.294Z,11.85
2022-11-16T04:48:19.525Z,11.41
2022-11-16T04:50:48.356Z,11.64
2022-11-16T04:53:15.921Z,11.70
2022-11-16T04:55:46.612Z,11.68
2022-11-16T04:58:14.182Z,11.57
2022-11-16T05:00:41.138Z,11.42
2022-11-16T05:03:09.324Z,11.44
2022-11-16T05:05:36.576Z,11.89
2022-11-16T05:08:06.669Z,11.65
2022-11-16T05:10:33.788Z,11.85
2022-11-16T05:13:00.701Z,11.94
2022-11-16T05:15:28.328Z,11.88
2022-11-16T05:17:56.682Z,11.77
2022-11-16T05:20:44.125Z,11.84
2022-11-16T05:23:30.978Z,11.78
2022-11-16T05:26:02.680Z,11.74
2022-11-16T05:28:29.721Z,11.65
2022-11-16T05:30:57.408Z,11.60
2022-11-16T05:33:26.258Z,11.44
2022-11-16T05:35:53.135Z,11.57
2022-11-16T05:38:21.286Z,11.70
2022-11-16T05:40:52.493Z,11.73
2022-11-16T05:43:20.394Z,11.61
2022-11-16T05:45:58.633Z,11.78
2022-11-16T05:48:25.629Z,11.81
2022-11-16T05:51:00.971Z,11.69
2022-11-16T05:53:32.448Z,11.73
2022-11-16T05:55:59.241Z,11.66
2022-11-16T05:58:26.504Z,11.59
2022-11-16T06:00:53.761Z,11.67
2022-11-16T06:03:21.835Z,11.62
2022-11-16T06:05:48.897Z,11.66
2022-11-16T06:08:17.387Z,11.66
2022-11-16T06:10:45.278Z,11.68
2022-11-16T06:13:12.409Z,11.61
2022-11-16T06:15:41.509Z,11.44
2022-11-16T06:18:10.140Z,11.47
2022-11-16T06:20:40.764Z,11.48
2022-11-16T06:23:07.527Z,11.58
2022-11-16T06:25:35.076Z,11.56
2022-11-16T06:28:07.455Z,11.40
2022-11-16T06:30:35.507Z,11.46
2022-11-16T06:33:04.334Z,11.80
2022-11-16T06:35:31.524Z,11.74
2022-11-16T06:37:58.673Z,11.84
2022-11-16T06:40:27.239Z,11.84
2022-11-16T06:42:54.187Z,11.61
2022-11-16T06:45:21.055Z,11.41
2022-11-16T06:47:52.464Z,11.45
2022-11-16T06:50:20.717Z,11.46
2022-11-16T06:52:49.673Z,11.38
2022-11-16T06:55:18.464Z,11.46
2022-11-16T06:57:47.151Z,11.51
2022-11-16T07:00:14.399Z,11.74
2022-11-16T07:02:41.719Z,11.67
2022-11-16T07:05:13.141Z,11.25
2022-11-16T07:07:41.360Z,11.46
2022-11-16T07:10:08.902Z,11.65
2022-11-16T07:12:36.460Z,11.63
2022-11-16T07:15:05.576Z,11.54
2022-11-16T07:17:34.138Z,11.60
2022-11-16T07:20:00.988Z,11.61
2022-11-16T07:22:30.957Z,11.67
2022-11-16T07:24:59.468Z,11.70
2022-11-16T07:27:26.305Z,11.66
2022-11-16T07:29:54.466Z,11.56
2022-11-16T07:32:42.943Z,11.41
2022-11-16T07:35:20.303Z,11.85
2022-11-16T07:37:46.980Z,11.92
2022-11-16T07:40:15.269Z,11.85
2022-11-16T07:42:45.260Z,11.82
2022-11-16T07:45:30.876Z,11.86
2022-11-16T07:48:05.094Z,11.82
2022-11-16T07:50:50.343Z,11.91
2022-11-16T07:53:20.946Z,11.71
2022-11-16T07:55:53.977Z,12.03
2022-11-16T07:58:22.862Z,12.19
2022-11-16T08:00:50.093Z,12.05
2022-11-16T08:03:24.528Z,12.03
2022-11-16T08:06:08.435Z,11.98
2022-11-16T08:08:35.649Z,11.99
2022-11-16T08:11:05.267Z,12.01
2022-11-16T08:13:34.299Z,11.76
2022-11-16T08:16:08.745Z,11.63
2022-11-16T08:18:37.845Z,11.76
2022-11-16T08:21:07.229Z,11.74
2022-11-16T08:23:34.130Z,11.73
2022-11-16T08:26:04.276Z,11.76
2022-11-16T08:28:31.584Z,12.36
2022-11-16T08:30:59.964Z,12.28
2022-11-16T08:33:29.327Z,12.32
2022-11-16T08:35:57.253Z,12.33
2022-11-16T08:38:25.148Z,12.32
2022-11-16T08:40:55.340Z,12.17
2022-11-16T08:43:23.938Z,12.22
2022-11-16T08:45:52.412Z,12.14
2022-11-16T08:48:19.805Z,12.28
2022-11-16T08:51:10.515Z,12.26
2022-11-16T08:53:33.850Z,12.21
2022-11-16T08:56:06.115Z,12.25
2022-11-16T08:58:33.217Z,12.25
2022-11-16T09:01:07.231Z,12.36
2022-11-16T09:03:33.934Z,12.44
2022-11-16T09:06:00.563Z,12.35
2022-11-16T09:08:27.191Z,12.49
2022-11-16T09:10:53.759Z,12.53
2022-11-16T09:13:20.546Z,12.61
2022-11-16T09:15:47.274Z,12.65
2022-11-16T09:18:14.001Z,12.62
2022-11-16T09:20:45.329Z,12.76
2022-11-16T09:23:13.657Z,12.83
2022-11-16T09:25:40.270Z,12.77
2022-11-16T09:28:07.596Z,12.72
2022-11-16T09:30:34.358Z,12.84
2022-11-16T09:33:01.966Z,12.73
2022-11-16T09:35:28.633Z,12.85
2022-11-16T09:37:55.364Z,12.81
2022-11-16T09:40:22.406Z,12.87
2022-11-16T09:43:13.738Z,12.93
2022-11-16T09:46:14.039Z,12.67
2022-11-16T09:48:41.715Z,12.84
2022-11-16T09:51:13.750Z,12.95
2022-11-16T09:53:47.764Z,12.97
2022-11-16T09:56:23.066Z,12.88
2022-11-16T09:58:56.527Z,13.12
2022-11-16T10:01:30.156Z,13.18
2022-11-16T10:04:06.554Z,13.05
2022-11-16T10:06:45.860Z,12.94
2022-11-16T10:09:13.436Z,12.84
2022-11-16T10:11:51.642Z,13.03
2022-11-16T10:14:27.718Z,12.84
2022-11-16T10:17:03.762Z,12.84
2022-11-16T10:20:18.397Z,13.23
2022-11-16T10:23:17.570Z,13.08
2022-11-16T10:25:46.305Z,12.81
2022-11-16T10:28:27.625Z,13.08
2022-11-16T10:31:38.810Z,13.06
2022-11-16T10:34:09.364Z,13.20
2022-11-16T10:36:37.532Z,13.35
2022-11-16T10:39:13.675Z,13.56
2022-11-16T10:41:53.625Z,13.40
2022-11-16T10:44:41.967Z,13.13
2022-11-16T10:47:34.005Z,13.70
2022-11-16T10:50:04.444Z,13.92
2022-11-16T10:52:31.277Z,14.17
2022-11-16T10:54:58.126Z,14.11
2022-11-16T10:57:26.804Z,14.18
2022-11-16T10:59:58.964Z,14.18
2022-11-16T11:02:36.912Z,14.16
2022-11-16T11:05:20.258Z,14.04
2022-11-16T11:07:56.739Z,14.08
2022-11-16T11:10:32.362Z,13.95
2022-11-16T11:13:13.562Z,14.00
2022-11-16T11:15:44.667Z,14.30
2022-11-16T11:18:20.699Z,14.51
2022-11-16T11:20:53.691Z,14.33
2022-11-16T11:23:26.429Z,14.22
2022-11-16T11:25:56.227Z,14.35
2022-11-16T11:28:26.383Z,14.20
2022-11-16T11:31:09.248Z,14.13
2022-11-16T11:33:43.765Z,13.92
2022-11-16T11:36:18.774Z,13.84
2022-11-16T11:39:21.014Z,13.73
2022-11-16T11:42:13.008Z,13.81
2022-11-16T11:44:57.075Z,13.82
2022-11-16T11:47:59.603Z,13.62
2022-11-16T11:50:44.218Z,13.73
2022-11-16T11:53:23.415Z,13.74
2022-11-16T11:55:56.919Z,13.65
2022-11-16T11:58:30.064Z,13.73
2022-11-16T12:01:16.606Z,13.83
2022-11-16T12:04:12.978Z,13.77
2022-11-16T12:06:57.176Z,13.82
2022-11-16T12:09:49.141Z,13.81
2022-11-16T12:12:51.389Z,13.91
2022-11-16T12:15:27.442Z,14.00
2022-11-16T12:18:16.370Z,14.17
2022-11-16T12:21:27.618Z,14.03
2022-11-16T12:24:29.927Z,14.17
2022-11-16T12:27:14.470Z,14.13
2022-11-16T12:30:02.498Z,13.99
2022-11-16T12:32:47.125Z,13.98
2022-11-16T12:35:41.423Z,14.06
2022-11-16T12:38:29.454Z,13.97
2022-11-16T12:41:35.114Z,13.99
2022-11-16T12:44:08.621Z,14.07
2022-11-16T12:46:59.323Z,14.16
2022-11-16T12:50:06.230Z,14.24
2022-11-16T12:52:49.898Z,14.32
2022-11-16T12:55:54.843Z,14.25
2022-11-16T12:59:06.550Z,13.94
2022-11-16T13:01:40.058Z,14.02
2022-11-16T13:04:21.550Z,13.83
2022-11-16T13:07:10.718Z,13.99
2022-11-16T13:09:44.769Z,14.08
2022-11-16T13:12:16.985Z,14.45
2022-11-16T13:14:48.069Z,14.35
2022-11-16T13:17:32.763Z,14.34
2022-11-16T13:20:37.384Z,14.34
2022-11-16T13:23:09.811Z,14.29
2022-11-16T13:25:50.823Z,14.32
2022-11-16T13:28:33.989Z,14.13
2022-11-16T13:31:09.586Z,14.24
2022-11-16T13:33:39.229Z,14.17
2022-11-16T13:36:37.719Z,14.29
2022-11-16T13:39:10.177Z,14.37
2022-11-16T13:41:41.258Z,14.23
2022-11-16T13:44:21.720Z,14.09
2022-11-16T13:46:56.582Z,13.95
2022-11-16T13:49:35.377Z,14.41
2022-11-16T13:52:22.559Z,14.43
2022-11-16T13:54:53.661Z,14.29
2022-11-16T13:57:29.641Z,14.47
2022-11-16T14:00:01.998Z,14.38
2022-11-16T14:02:39.620Z,14.57
2022-11-16T14:05:15.414Z,14.68
2022-11-16T14:07:49.386Z,14.46
2022-11-16T14:10:34.773Z,14.29
2022-11-16T14:13:06.094Z,14.16
2022-11-16T14:15:37.665Z,14.08
2022-11-16T14:18:07.186Z,14.12
2022-11-16T14:20:51.180Z,14.02
2022-11-16T14:23:52.081Z,13.93
2022-11-16T14:26:42.216Z,14.00
2022-11-16T14:29:23.193Z,14.06
2022-11-16T14:31:56.671Z,14.20
2022-11-16T14:34:29.374Z,14.09
2022-11-16T14:36:58.024Z,14.37
2022-11-16T14:39:29.563Z,14.45
2022-11-16T14:42:06.396Z,14.54
2022-11-16T14:44:39.195Z,14.40
2022-11-16T14:47:17.946Z,14.29
2022-11-16T14:49:46.737Z,14.29
2022-11-16T14:52:14.946Z,14.28
2022-11-16T14:54:48.698Z,14.33
2022-11-16T14:57:23.765Z,14.19
2022-11-16T15:00:08.691Z,13.96
2022-11-16T15:02:36.711Z,14.06
2022-11-16T15:05:05.699Z,14.05
2022-11-16T15:07:32.794Z,13.99
2022-11-16T15:10:00.603Z,13.85
2022-11-16T15:12:42.250Z,13.77
2022-11-16T15:15:11.939Z,13.82
2022-11-16T15:17:41.041Z,13.86
2022-11-16T15:20:25.769Z,13.77
2022-11-16T15:22:55.384Z,13.73
2022-11-16T15:25:39.710Z,13.55
2022-11-16T15:28:20.419Z,13.68
2022-11-16T15:31:04.801Z,13.65
2022-11-16T15:33:41.605Z,13.54
2022-11-16T15:36:25.494Z,13.50
2022-11-16T15:38:55.494Z,13.52
2022-11-16T15:41:23.620Z,13.65
2022-11-16T15:44:13.576Z,13.35
2022-11-16T15:46:42.580Z,13.45
2022-11-16T15:49:35.519Z,13.52
2022-11-16T15:52:03.354Z,13.40
2022-11-16T15:54:53.693Z,13.19
2022-11-16T15:57:25.499Z,12.80
2022-11-16T15:59:57.260Z,12.89
2022-11-16T16:02:30.029Z,12.81
2022-11-16T16:04:56.928Z,12.80
2022-11-16T16:07:38.178Z,12.89
2022-11-16T16:10:20.832Z,12.74
2022-11-16T16:12:50.410Z,12.88
2022-11-16T16:15:36.535Z,12.73
2022-11-16T16:18:12.086Z,12.82
2022-11-16T16:20:38.794Z,12.87
2022-11-16T16:23:13.402Z,12.86
2022-11-16T16:25:40.061Z,12.85
2022-11-16T16:28:06.688Z,12.85
2022-11-16T16:30:34.669Z,12.90
2022-11-16T16:33:02.324Z,12.92
2022-11-16T16:35:32.179Z,12.91
2022-11-16T16:38:01.627Z,12.84
2022-11-16T16:40:29.175Z,12.88
2022-11-16T16:42:56.944Z,12.87
2022-11-16T16:45:38.058Z,12.78
2022-11-16T16:48:07.092Z,12.79
2022-11-16T16:50:33.722Z,12.71
2022-11-16T16:53:02.028Z,12.93
2022-11-16T16:55:32.859Z,12.92
2022-11-16T16:58:03.782Z,12.79
2022-11-16T17:00:30.791Z,12.85
2022-11-16T17:02:58.460Z,12.68
2022-11-16T17:05:26.420Z,12.68
2022-11-16T17:07:56.632Z,12.65
2022-11-16T17:10:23.682Z,12.68
2022-11-16T17:12:54.091Z,12.59
2022-11-16T17:15:22.062Z,12.49
2022-11-16T17:17:48.877Z,12.64
2022-11-16T17:20:16.292Z,12.55
2022-11-16T17:22:43.354Z,12.60
2022-11-16T17:25:10.686Z,12.57
2022-11-16T17:27:37.390Z,12.65
2022-11-16T17:30:04.391Z,12.61
2022-11-16T17:32:31.762Z,12.68
2022-11-16T17:34:59.309Z,12.82
2022-11-16T17:37:25.878Z,12.62
2022-11-16T17:39:52.547Z,12.76
2022-11-16T17:42:19.149Z,12.57
2022-11-16T17:44:48.462Z,12.74
2022-11-16T17:47:16.095Z,12.68
2022-11-16T17:49:43.336Z,12.63
2022-11-16T17:52:09.978Z,12.68
2022-11-16T17:54:36.757Z,12.91
2022-11-16T17:57:03.529Z,13.02
2022-11-16T17:59:30.243Z,13.07
2022-11-16T18:01:57.974Z,13.23
2022-11-16T18:04:25.374Z,12.95
2022-11-16T18:06:52.252Z,12.93
2022-11-16T18:09:19.045Z,12.93
2022-11-16T18:11:46.149Z,12.69
2022-11-16T18:14:13.902Z,12.85
2022-11-16T18:16:44.298Z,12.73
2022-11-16T18:19:16.246Z,12.97
2022-11-16T18:21:43.905Z,13.20
2022-11-16T18:24:11.686Z,13.30
2022-11-16T18:26:40.421Z,13.42
2022-11-16T18:29:12.621Z,13.19
2022-11-16T18:31:39.931Z,12.81
2022-11-16T18:34:06.577Z,12.99
2022-11-16T18:36:33.689Z,12.73
2022-11-16T18:39:00.837Z,12.74
2022-11-16T18:41:30.706Z,12.95
2022-11-16T18:43:59.700Z,12.71
2022-11-16T18:46:28.737Z,12.73
2022-11-16T18:48:56.270Z,12.93
2022-11-16T18:51:24.609Z,12.78
2022-11-16T18:53:52.011Z,12.80
2022-11-16T18:56:19.331Z,12.91
2022-11-16T18:58:51.268Z,12.56
2022-11-16T19:01:20.607Z,12.74
2022-11-16T19:03:47.588Z,12.62
2022-11-16T19:06:16.987Z,13.04
2022-11-16T19:08:46.850Z,12.93
2022-11-16T19:11:17.028Z,12.79
2022-11-16T19:13:45.081Z,12.56
2022-11-16T19:16:13.392Z,12.60
2022-11-16T19:18:40.416Z,12.57
2022-11-16T19:21:14.934Z,12.63
2022-11-16T19:23:47.175Z,12.26
2022-11-16T19:26:16.153Z,12.56
2022-11-16T19:28:45.789Z,12.65
2022-11-16T19:31:15.739Z,12.44
2022-11-16T19:33:43.163Z,12.60
2022-11-16T19:36:15.397Z,12.59
2022-11-16T19:38:42.734Z,12.66
2022-11-16T19:41:10.734Z,12.65
2022-11-16T19:43:38.274Z,12.39
2022-11-16T19:46:10.942Z,12.47
2022-11-16T19:48:38.143Z,12.59
2022-11-16T19:51:14.390Z,12.37
2022-11-16T19:53:41.084Z,12.47
2022-11-16T19:56:11.055Z,12.45
2022-11-16T19:58:38.513Z,12.26
2022-11-16T20:01:12.175Z,12.47
2022-11-16T20:03:40.284Z,12.58
2022-11-16T20:06:17.124Z,12.42
2022-11-16T20:08:50.624Z,12.77
2022-11-16T20:11:20.587Z,12.61
2022-11-16T20:13:49.210Z,12.53
2022-11-16T20:16:18.387Z,12.40
2022-11-16T20:18:45.999Z,12.44
2022-11-16T20:21:19.281Z,12.30
2022-11-16T20:23:46.449Z,12.22
2022-11-16T20:26:14.051Z,12.35
2022-11-16T20:28:42.570Z,12.37
2022-11-16T20:31:16.692Z,12.65
2022-11-16T20:33:50.487Z,12.61
2022-11-16T20:36:17.762Z,12.70
2022-11-16T20:38:44.488Z,12.69
2022-11-16T20:41:19.612Z,12.57
2022-11-16T20:43:47.603Z,12.66
2022-11-16T20:46:16.783Z,12.54
2022-11-16T20:48:44.649Z,12.26
2022-11-16T20:51:13.691Z,12.32
2022-11-16T20:53:40.546Z,12.47
2022-11-16T20:56:10.017Z,12.38
2022-11-16T20:58:37.166Z,12.40
2022-11-16T21:01:07.321Z,12.64
2022-11-16T21:03:34.837Z,12.30
2022-11-16T21:06:01.876Z,12.36
2022-11-16T21:08:29.817Z,12.43
2022-11-16T21:10:56.666Z,12.39
2022-11-16T21:13:42.547Z,12.45
2022-11-16T21:16:12.003Z,12.62
2022-11-16T21:18:45.025Z,12.48
2022-11-16T21:21:13.239Z,12.70
2022-11-16T21:23:43.089Z,12.69
2022-11-16T21:26:12.401Z,12.59
2022-11-16T21:28:39.921Z,12.43
2022-11-16T21:31:09.684Z,12.41
2022-11-16T21:33:36.750Z,12.46
2022-11-16T21:36:11.032Z,12.46
2022-11-16T21:38:38.655Z,12.40
2022-11-16T21:41:06.368Z,12.51
2022-11-16T21:43:36.390Z,12.45
2022-11-16T21:46:18.472Z,12.34
2022-11-16T21:48:47.715Z,12.31
2022-11-16T21:51:20.113Z,12.40
2022-11-16T21:53:47.539Z,12.41
2022-11-16T21:56:16.619Z,12.61
2022-11-16T21:58:43.391Z,12.31
2022-11-16T22:01:11.499Z,12.30
2022-11-16T22:03:38.839Z,12.53
2022-11-16T22:06:25.787Z,12.31
2022-11-16T22:08:52.806Z,12.23
2022-11-16T22:11:22.125Z,12.43
2022-11-16T22:13:50.666Z,12.36
2022-11-16T22:16:18.632Z,12.44
2022-11-16T22:18:45.622Z,12.14
2022-11-16T22:21:12.404Z,12.22
2022-11-16T22:23:39.428Z,12.17
2022-11-16T22:26:09.375Z,12.37
2022-11-16T22:28:37.415Z,12.35
2022-11-16T22:31:04.400Z,12.66
2022-11-16T22:33:31.977Z,12.48
2022-11-16T22:35:59.722Z,12.52
2022-11-16T22:38:27.093Z,12.63
2022-11-16T22:40:55.952Z,12.25
2022-11-16T22:43:25.351Z,12.21
2022-11-16T22:45:52.015Z,12.00
2022-11-16T22:48:18.654Z,12.09
2022-11-16T22:50:45.378Z,12.36
2022-11-16T22:53:12.172Z,12.44
2022-11-16T22:55:39.418Z,12.32
2022-11-16T22:58:07.688Z,12.47
2022-11-16T23:00:40.658Z,12.43
2022-11-16T23:03:08.755Z,12.30
2022-11-16T23:05:35.424Z,12.38
2022-11-16T23:08:02.167Z,12.34
2022-11-16T23:10:29.410Z,12.35
2022-11-16T23:13:28.337Z,12.32
2022-11-16T23:15:57.284Z,12.19
2022-11-16T23:18:23.883Z,12.28
2022-11-16T23:21:12.077Z,12.23
2022-11-16T23:23:57.260Z,12.25
2022-11-16T23:26:43.211Z,12.39
2022-11-16T23:29:11.344Z,12.23
2022-11-16T23:31:38.299Z,12.35
2022-11-16T23:34:05.480Z,12.33
2022-11-16T23:36:32.126Z,12.14
2022-11-16T23:38:58.745Z,11.94
2022-11-16T23:41:45.138Z,12.25
2022-11-16T23:44:11.963Z,12.35
2022-11-16T23:46:38.866Z,12.26
2022-11-16T23:49:05.482Z,11.98
2022-11-16T23:51:32.124Z,11.94
2022-11-16T23:53:58.862Z,12.05
2022-11-16T23:56:27.553Z,12.33
2022-11-16T23:58:57.383Z,12.22
